Time;durP1;ratioP1;P1;durP2;ratioP2;P2;SDS_P1;SDS_P2;PMS_P1;PMS_P2;Temp;Humidity;BMP_temperature;BMP_pressure;BME280_temperature;BME280_humidity;BME280_pressure;Samples;Min_cycle;Max_cycle;Signal;HPM_P1;HPM_P2
2023/07/16 00:00:18;;;;;;;13.43;3.17;;;16.00;99.90;;;;;;5132822;27;20030;-47
2023/07/16 00:02:43;;;;;;;14.73;2.53;;;15.90;99.90;;;;;;5132658;27;20027;-42
2023/07/16 00:05:09;;;;;;;8.43;1.75;;;15.90;99.90;;;;;;5132683;27;20015;-41
2023/07/16 00:07:35;;;;;;;16.35;2.90;;;15.90;99.90;;;;;;5132469;27;20019;-43
2023/07/16 00:10:00;;;;;;;11.65;2.28;;;15.90;99.90;;;;;;5132593;27;20510;-42
2023/07/16 00:12:26;;;;;;;7.38;2.63;;;15.90;99.90;;;;;;5132350;27;20098;-41
2023/07/16 00:14:51;;;;;;;15.38;3.35;;;15.90;99.90;;;;;;5132395;27;20022;-42
2023/07/16 00:17:17;;;;;;;12.98;2.97;;;15.90;99.90;;;;;;5132224;27;20027;-42
2023/07/16 00:19:43;;;;;;;10.75;2.60;;;15.90;99.90;;;;;;5132254;27;20144;-42
2023/07/16 00:22:08;;;;;;;11.93;2.60;;;15.90;99.90;;;;;;5132347;27;20455;-41
2023/07/16 00:24:34;;;;;;;7.30;2.50;;;15.90;99.90;;;;;;5132109;27;20015;-42
2023/07/16 00:26:59;;;;;;;12.40;1.70;;;15.90;99.90;;;;;;5132215;27;20497;-41
2023/07/16 00:29:25;;;;;;;6.75;1.88;;;15.90;99.90;;;;;;5132237;27;20023;-42
2023/07/16 00:31:51;;;;;;;8.05;1.95;;;15.80;99.90;;;;;;5132039;27;20015;-42
2023/07/16 00:34:16;;;;;;;9.15;2.20;;;15.80;99.90;;;;;;5131967;27;20475;-41
2023/07/16 00:36:42;;;;;;;6.70;1.63;;;15.80;99.90;;;;;;5131808;27;20475;-41
2023/07/16 00:39:07;;;;;;;10.90;1.73;;;15.80;99.90;;;;;;5131842;27;20079;-41
2023/07/16 00:41:33;;;;;;;9.55;1.75;;;15.80;99.90;;;;;;5131574;27;20030;-41
2023/07/16 00:43:58;;;;;;;8.10;1.20;;;15.90;99.90;;;;;;5132490;27;20108;-42
2023/07/16 00:46:25;;;;;;;15.52;2.08;;;15.90;99.90;;;;;;5132956;27;20470;-43
2023/07/16 00:48:51;;;;;;;12.05;2.30;;;15.90;99.90;;;;;;5145063;27;20027;-41
2023/07/16 00:51:17;;;;;;;5.53;1.85;;;15.90;99.90;;;;;;5132804;27;20107;-42
2023/07/16 00:53:44;;;;;;;6.88;1.88;;;15.90;99.90;;;;;;5131964;27;20089;-41
2023/07/16 00:56:11;;;;;;;9.88;1.60;;;15.90;99.90;;;;;;5130185;27;20074;-41
2023/07/16 00:58:36;;;;;;;5.97;1.40;;;15.90;99.90;;;;;;5130425;27;20063;-43
2023/07/16 01:01:02;;;;;;;8.70;1.88;;;15.80;99.90;;;;;;5131738;27;20383;-48
2023/07/16 01:03:28;;;;;;;14.60;1.98;;;15.80;99.90;;;;;;5122825;27;20024;-49
2023/07/16 01:06:08;;;;;;;6.72;2.25;;;15.80;99.90;;;;;;5130798;27;20023;-47
2023/07/16 01:08:49;;;;;;;13.55;2.53;;;15.80;99.90;;;;;;5130334;27;20075;-48
2023/07/16 01:11:15;;;;;;;13.60;1.52;;;15.80;99.90;;;;;;5129470;27;20023;-46
2023/07/16 01:13:41;;;;;;;9.98;1.90;;;15.90;99.90;;;;;;5128490;27;20023;-44
2023/07/16 01:16:17;;;;;;;8.45;1.85;;;15.80;99.90;;;;;;5138756;27;20501;-45
2023/07/16 01:18:43;;;;;;;9.50;2.03;;;15.90;99.90;;;;;;5131152;27;20078;-48
2023/07/16 01:21:08;;;;;;;9.95;1.63;;;15.90;99.90;;;;;;5142747;27;20030;-46
2023/07/16 01:24:09;;;;;;;11.63;2.15;;;15.90;99.90;;;;;;5143037;27;20041;-42
2023/07/16 01:27:06;;;;;;;13.43;2.08;;;15.90;99.90;;;;;;5139798;27;20090;-50
2023/07/16 01:29:37;;;;;;;8.82;2.58;;;16.00;99.90;;;;;;5126786;27;20028;-42
2023/07/16 01:32:05;;;;;;;10.45;1.85;;;15.90;99.90;;;;;;5137912;27;20019;-44
2023/07/16 01:34:33;;;;;;;13.60;2.05;;;16.00;99.90;;;;;;5134537;27;20023;-48
2023/07/16 01:37:01;;;;;;;10.70;2.25;;;15.90;99.90;;;;;;5147135;27;20438;-47
2023/07/16 01:39:27;;;;;;;9.85;1.83;;;16.00;99.90;;;;;;5136145;27;20080;-48
2023/07/16 01:41:52;;;;;;;6.18;1.77;;;16.00;99.90;;;;;;5127210;27;20038;-48
2023/07/16 01:44:18;;;;;;;10.35;2.22;;;16.00;99.90;;;;;;5130568;27;20080;-49
2023/07/16 01:46:44;;;;;;;12.07;2.05;;;16.00;99.90;;;;;;5129057;27;20026;-45
2023/07/16 01:49:09;;;;;;;9.48;1.35;;;16.00;99.90;;;;;;5151696;27;20011;-49
2023/07/16 01:51:35;;;;;;;10.93;2.28;;;15.90;99.90;;;;;;5137068;27;20027;-50
2023/07/16 01:54:00;;;;;;;6.50;1.63;;;16.00;99.90;;;;;;5151661;27;20019;-48
2023/07/16 01:56:26;;;;;;;6.22;1.33;;;16.00;99.90;;;;;;5151111;27;20043;-46
2023/07/16 01:58:52;;;;;;;7.82;2.30;;;16.00;99.90;;;;;;5151524;27;20094;-44
2023/07/16 02:01:17;;;;;;;6.38;1.77;;;16.00;99.90;;;;;;5151552;27;20090;-54
2023/07/16 02:03:43;;;;;;;7.50;2.08;;;16.00;99.90;;;;;;5147722;27;20023;-47
2023/07/16 02:06:09;;;;;;;5.82;2.13;;;15.90;99.90;;;;;;5149992;27;20023;-49
2023/07/16 02:08:34;;;;;;;8.90;1.60;;;16.00;99.90;;;;;;5154121;27;20027;-45
2023/07/16 02:11:00;;;;;;;5.70;1.77;;;16.00;99.90;;;;;;5155210;27;20015;-42
2023/07/16 02:13:27;;;;;;;10.88;1.67;;;15.90;99.90;;;;;;5155406;27;20067;-46
2023/07/16 02:15:52;;;;;;;11.68;1.73;;;15.90;99.90;;;;;;5155139;27;20098;-47
2023/07/16 02:18:18;;;;;;;7.60;1.80;;;15.90;99.90;;;;;;5155341;27;20109;-47
2023/07/16 02:20:44;;;;;;;7.65;1.50;;;15.80;99.90;;;;;;5155069;27;20463;-51
2023/07/16 02:23:09;;;;;;;5.60;1.50;;;15.80;99.90;;;;;;5155404;27;20030;-46
2023/07/16 02:25:35;;;;;;;7.13;2.10;;;15.70;99.90;;;;;;5154724;27;20023;-44
2023/07/16 02:28:01;;;;;;;6.72;1.60;;;15.80;99.90;;;;;;5154183;27;20080;-48
2023/07/16 02:30:27;;;;;;;5.95;1.30;;;15.80;99.90;;;;;;5155117;27;20097;-43
2023/07/16 02:32:53;;;;;;;4.97;1.65;;;15.70;99.90;;;;;;5153596;27;20109;-50
2023/07/16 02:35:18;;;;;;;6.20;1.25;;;15.70;99.90;;;;;;5155094;27;20110;-55
2023/07/16 02:37:44;;;;;;;13.60;2.05;;;15.80;99.90;;;;;;5154736;27;20094;-51
2023/07/16 02:40:10;;;;;;;5.18;1.45;;;15.80;99.90;;;;;;5154830;27;20118;-53
2023/07/16 02:42:35;;;;;;;6.55;1.40;;;15.80;99.90;;;;;;5140035;27;20031;-45
2023/07/16 02:45:01;;;;;;;8.73;1.75;;;15.80;99.90;;;;;;5137321;27;20023;-46
2023/07/16 02:47:26;;;;;;;11.48;2.17;;;15.80;99.90;;;;;;5143102;27;20054;-45
2023/07/16 02:49:52;;;;;;;9.85;2.15;;;15.90;99.90;;;;;;5154592;27;20063;-50
2023/07/16 02:52:18;;;;;;;14.55;1.60;;;15.90;99.90;;;;;;5154611;27;20030;-54
2023/07/16 02:54:43;;;;;;;9.73;2.38;;;15.90;99.90;;;;;;5154544;27;20126;-51
2023/07/16 02:57:09;;;;;;;11.02;1.50;;;15.80;99.90;;;;;;5154368;27;20253;-53
2023/07/16 02:59:34;;;;;;;12.60;1.92;;;15.80;99.90;;;;;;5154672;27;20022;-44
2023/07/16 03:02:00;;;;;;;8.73;2.10;;;15.80;99.90;;;;;;5151797;27;21750;-52
2023/07/16 03:04:26;;;;;;;13.68;1.77;;;15.70;99.90;;;;;;5142712;27;20051;-49
2023/07/16 03:06:51;;;;;;;7.28;1.55;;;15.70;99.90;;;;;;5153023;27;20055;-50
2023/07/16 03:09:17;;;;;;;4.70;1.13;;;15.80;99.90;;;;;;5154393;27;20491;-46
2023/07/16 03:11:43;;;;;;;18.73;2.55;;;15.70;99.90;;;;;;5154364;27;20113;-47
2023/07/16 03:14:08;;;;;;;9.43;1.65;;;15.70;99.90;;;;;;5153015;27;20414;-47
2023/07/16 03:16:34;;;;;;;5.40;1.52;;;15.70;99.90;;;;;;5154157;27;20030;-42
2023/07/16 03:19:00;;;;;;;7.30;1.77;;;15.70;99.90;;;;;;5152885;27;20386;-44
2023/07/16 03:21:25;;;;;;;6.30;1.50;;;15.60;99.90;;;;;;5154113;27;20047;-47
2023/07/16 03:23:51;;;;;;;7.00;2.13;;;15.50;99.90;;;;;;5153815;27;20403;-42
2023/07/16 03:26:16;;;;;;;6.88;1.42;;;15.50;99.90;;;;;;5152817;27;20042;-48
2023/07/16 03:28:42;;;;;;;6.15;1.45;;;15.50;99.90;;;;;;5153961;27;20015;-43
2023/07/16 03:31:07;;;;;;;9.13;1.85;;;15.40;99.90;;;;;;5154047;27;20026;-42
2023/07/16 03:33:33;;;;;;;8.68;1.60;;;15.40;99.90;;;;;;5154041;27;20026;-46
2023/07/16 03:35:59;;;;;;;7.70;1.90;;;15.30;99.90;;;;;;5153584;27;20101;-46
2023/07/16 03:38:24;;;;;;;7.55;2.47;;;15.30;99.90;;;;;;5153937;27;20037;-44
2023/07/16 03:40:50;;;;;;;8.35;1.88;;;15.30;99.90;;;;;;5153601;27;20042;-43
2023/07/16 03:43:16;;;;;;;10.40;1.48;;;15.30;99.90;;;;;;5143963;27;20462;-44
2023/07/16 03:45:42;;;;;;;9.77;1.73;;;15.30;99.90;;;;;;5132885;27;20076;-42
2023/07/16 03:48:08;;;;;;;8.95;1.77;;;15.30;99.90;;;;;;5132668;27;20019;-43
2023/07/16 03:50:35;;;;;;;7.78;1.88;;;15.30;99.90;;;;;;5132740;27;20368;-43
2023/07/16 03:53:02;;;;;;;7.57;2.10;;;15.30;99.90;;;;;;5132586;27;20057;-43
2023/07/16 03:55:28;;;;;;;7.45;1.50;;;15.40;99.90;;;;;;5132715;27;20044;-42
2023/07/16 03:57:54;;;;;;;8.73;1.85;;;15.40;99.90;;;;;;5132803;27;20440;-41
2023/07/16 04:00:19;;;;;;;10.38;1.98;;;15.40;99.90;;;;;;5132576;27;20345;-42
2023/07/16 04:02:45;;;;;;;7.22;1.77;;;15.30;99.90;;;;;;5132544;27;20114;-46
2023/07/16 04:05:11;;;;;;;5.32;2.13;;;15.30;99.90;;;;;;5132313;27;20386;-43
2023/07/16 04:07:36;;;;;;;10.15;1.80;;;15.40;99.90;;;;;;5132508;27;20020;-46
2023/07/16 04:10:02;;;;;;;3.33;1.23;;;15.40;99.90;;;;;;5132524;27;20059;-50
2023/07/16 04:12:28;;;;;;;10.40;1.80;;;15.30;99.90;;;;;;5131102;27;20030;-43
2023/07/16 04:14:57;;;;;;;9.13;1.70;;;15.30;99.90;;;;;;5132551;27;20387;-49
2023/07/16 04:17:23;;;;;;;;;;;15.40;99.90;;;;;;5132276;27;20035;-42
2023/07/16 04:19:49;;;;;;;11.73;1.80;;;15.30;99.90;;;;;;5132597;27;20251;-47
2023/07/16 04:22:14;;;;;;;5.82;1.33;;;15.20;99.90;;;;;;5132217;27;20034;-51
2023/07/16 04:24:40;;;;;;;12.52;1.60;;;15.20;99.90;;;;;;5132403;27;20030;-50
2023/07/16 04:27:06;;;;;;;11.07;1.85;;;15.20;99.90;;;;;;5132384;27;20023;-53
2023/07/16 04:29:31;;;;;;;8.27;1.67;;;15.20;99.90;;;;;;5130909;27;20027;-45
2023/07/16 04:31:57;;;;;;;7.30;1.42;;;15.20;99.90;;;;;;5131973;27;20023;-49
2023/07/16 04:34:23;;;;;;;4.03;1.48;;;15.20;99.90;;;;;;5132149;27;20023;-50
2023/07/16 04:36:48;;;;;;;4.78;1.80;;;15.20;99.90;;;;;;5131951;27;20027;-49
2023/07/16 04:39:14;;;;;;;9.95;2.03;;;15.20;99.90;;;;;;5131894;27;20031;-52
2023/07/16 04:41:39;;;;;;;5.28;1.40;;;15.20;99.90;;;;;;5132469;27;20027;-48
2023/07/16 04:44:05;;;;;;;9.95;1.50;;;15.10;99.90;;;;;;5132104;27;20416;-44
2023/07/16 04:46:31;;;;;;;7.65;1.90;;;15.20;99.90;;;;;;5130551;27;20376;-42
2023/07/16 04:48:56;;;;;;;10.00;1.60;;;15.20;99.90;;;;;;5131830;27;20102;-51
2023/07/16 04:51:22;;;;;;;11.45;2.17;;;15.20;99.90;;;;;;5131651;27;20528;-53
2023/07/16 04:53:48;;;;;;;8.70;1.33;;;15.20;99.90;;;;;;5131946;27;20031;-49
2023/07/16 04:56:15;;;;;;;9.85;2.63;;;15.10;99.90;;;;;;5131788;27;20457;-51
2023/07/16 04:58:42;;;;;;;8.07;1.67;;;15.10;99.90;;;;;;5131936;27;20031;-48
2023/07/16 05:01:09;;;;;;;9.90;2.00;;;15.20;99.90;;;;;;5131901;27;20027;-47
2023/07/16 05:03:34;;;;;;;9.25;2.03;;;15.30;99.90;;;;;;5131612;27;20038;-45
2023/07/16 05:06:00;;;;;;;7.70;1.48;;;15.40;99.90;;;;;;5131658;27;20030;-45
2023/07/16 05:08:26;;;;;;;8.65;1.60;;;15.50;99.90;;;;;;5131411;27;20023;-42
2023/07/16 05:10:51;;;;;;;8.65;1.88;;;15.50;99.90;;;;;;5131774;27;20026;-44
2023/07/16 05:13:17;;;;;;;8.45;2.35;;;15.50;99.90;;;;;;5131621;27;20026;-44
2023/07/16 05:15:46;;;;;;;4.65;1.35;;;15.60;99.90;;;;;;5131424;27;20383;-43
2023/07/16 05:18:11;;;;;;;8.52;1.48;;;15.60;99.90;;;;;;5131439;27;20571;-47
2023/07/16 05:20:37;;;;;;;6.78;1.90;;;15.60;99.90;;;;;;5131351;27;20110;-45
2023/07/16 05:23:02;;;;;;;3.92;1.55;;;15.60;99.90;;;;;;5131655;27;20019;-45
2023/07/16 05:25:28;;;;;;;8.02;1.20;;;15.60;99.90;;;;;;5131259;27;20015;-43
2023/07/16 05:27:54;;;;;;;12.77;1.52;;;15.60;99.90;;;;;;5131622;27;20026;-51
2023/07/16 05:30:20;;;;;;;5.78;1.63;;;15.60;99.90;;;;;;5131357;27;20417;-47
2023/07/16 05:32:45;;;;;;;12.23;1.65;;;15.60;99.90;;;;;;5131269;27;20067;-44
2023/07/16 05:35:11;;;;;;;5.85;1.45;;;15.60;99.90;;;;;;5131273;27;20067;-43
2023/07/16 05:37:37;;;;;;;7.15;1.90;;;15.60;99.90;;;;;;5131158;27;20109;-49
2023/07/16 05:40:03;;;;;;;8.20;1.50;;;15.60;99.90;;;;;;5131317;27;20094;-45
2023/07/16 05:42:29;;;;;;;11.23;2.30;;;15.60;99.90;;;;;;5132201;27;20403;-48
2023/07/16 05:44:55;;;;;;;16.27;2.08;;;15.70;99.90;;;;;;5135471;27;20019;-48
2023/07/16 05:47:20;;;;;;;8.70;1.88;;;15.80;99.90;;;;;;5135599;27;20110;-44
2023/07/16 05:49:46;;;;;;;8.70;1.55;;;16.00;99.90;;;;;;5135176;27;20020;-42
2023/07/16 05:52:12;;;;;;;10.18;2.05;;;16.20;99.90;;;;;;5135414;27;20110;-52
2023/07/16 05:54:37;;;;;;;7.28;1.38;;;16.40;99.90;;;;;;5135270;27;20376;-55
2023/07/16 05:57:03;;;;;;;4.65;1.20;;;16.60;99.90;;;;;;5135117;27;20388;-42
2023/07/16 05:59:29;;;;;;;6.45;1.30;;;16.90;99.90;;;;;;5135291;27;20020;-42
2023/07/16 06:01:57;;;;;;;12.85;1.75;;;17.20;99.90;;;;;;5135011;27;20367;-49
2023/07/16 06:04:23;;;;;;;7.85;1.58;;;17.60;99.90;;;;;;5134955;27;20152;-42
2023/07/16 06:06:48;;;;;;;6.60;1.10;;;18.00;99.90;;;;;;5134802;27;20114;-48
2023/07/16 06:09:14;;;;;;;6.25;1.48;;;18.40;99.90;;;;;;5134911;27;20146;-43
2023/07/16 06:11:40;;;;;;;7.38;1.15;;;18.80;99.90;;;;;;5133600;27;20464;-47
2023/07/16 06:14:05;;;;;;;9.25;1.65;;;19.00;99.90;;;;;;5134928;27;20007;-49
2023/07/16 06:16:31;;;;;;;7.82;1.45;;;19.30;99.90;;;;;;5134882;27;20031;-51
2023/07/16 06:18:56;;;;;;;7.97;1.30;;;19.40;99.90;;;;;;5134829;27;20049;-56
2023/07/16 06:21:22;;;;;;;5.10;1.17;;;19.80;99.90;;;;;;5134682;27;20019;-51
2023/07/16 06:23:48;;;;;;;4.13;1.25;;;19.80;99.90;;;;;;5134451;27;20080;-52
2023/07/16 06:26:13;;;;;;;5.15;1.08;;;19.40;99.90;;;;;;5134741;27;20126;-43
2023/07/16 06:28:39;;;;;;;8.55;1.60;;;19.60;99.90;;;;;;5134088;27;20464;-49
2023/07/16 06:31:04;;;;;;;9.90;1.80;;;19.40;99.90;;;;;;5133713;27;20455;-48
2023/07/16 06:33:30;;;;;;;5.65;1.00;;;19.10;99.90;;;;;;5134333;27;20080;-44
2023/07/16 06:35:56;;;;;;;7.50;1.83;;;19.10;99.90;;;;;;5134494;27;20468;-50
2023/07/16 06:38:22;;;;;;;7.43;1.35;;;18.90;99.90;;;;;;5133187;27;20107;-45
2023/07/16 06:40:48;;;;;;;7.20;1.48;;;18.50;99.90;;;;;;5134067;27;20487;-45
2023/07/16 06:43:15;;;;;;;5.05;1.35;;;18.10;99.90;;;;;;5134218;27;20042;-42
2023/07/16 06:45:40;;;;;;;9.60;1.27;;;17.70;99.90;;;;;;5134102;27;20031;-42
2023/07/16 06:48:06;;;;;;;5.80;1.20;;;17.50;99.90;;;;;;5133930;27;20030;-48
2023/07/16 06:50:32;;;;;;;5.13;1.23;;;17.20;99.90;;;;;;5138228;27;20030;-45
2023/07/16 06:52:57;;;;;;;9.30;1.65;;;17.10;99.90;;;;;;5135635;27;20028;-42
2023/07/16 06:55:23;;;;;;;9.38;1.27;;;17.40;99.90;;;;;;5137014;27;20041;-47
2023/07/16 06:57:48;;;;;;;7.20;1.40;;;18.30;99.90;;;;;;5142120;27;20452;-50
2023/07/16 07:00:14;;;;;;;8.10;1.23;;;19.30;99.90;;;;;;5135588;27;20051;-43
2023/07/16 07:02:41;;;;;;;7.13;1.33;;;20.10;99.90;;;;;;5144203;27;20027;-45
2023/07/16 07:05:06;;;;;;;9.13;1.30;;;20.90;99.90;;;;;;5134076;27;20023;-45
2023/07/16 07:07:32;;;;;;;7.30;1.65;;;21.20;99.90;;;;;;5133821;27;20027;-46
2023/07/16 07:09:58;;;;;;;7.10;1.48;;;21.60;99.90;;;;;;5133618;27;20019;-43
2023/07/16 07:12:23;;;;;;;5.95;1.38;;;21.80;99.90;;;;;;5133902;27;20064;-43
2023/07/16 07:14:52;;;;;;;5.25;0.95;;;22.10;99.90;;;;;;5133769;27;20086;-49
2023/07/16 07:17:18;;;;;;;5.60;1.27;;;22.40;99.90;;;;;;5133294;27;20126;-50
2023/07/16 07:19:44;;;;;;;6.90;1.20;;;22.40;99.90;;;;;;5134134;27;20111;-51
2023/07/16 07:22:10;;;;;;;7.28;1.40;;;22.20;99.90;;;;;;5133719;27;20471;-48
2023/07/16 07:24:37;;;;;;;7.07;1.23;;;21.60;99.90;;;;;;5133868;27;20019;-47
2023/07/16 07:27:03;;;;;;;6.93;1.50;;;21.30;99.90;;;;;;5133689;27;20027;-54
2023/07/16 07:29:29;;;;;;;12.25;1.77;;;21.00;99.90;;;;;;5132289;27;20388;-46
2023/07/16 07:31:55;;;;;;;8.77;1.70;;;20.70;99.90;;;;;;5125328;27;20028;-51
2023/07/16 07:34:24;;;;;;;6.93;1.30;;;20.70;99.90;;;;;;5125894;27;20024;-47
2023/07/16 07:36:50;;;;;;;8.50;1.40;;;21.40;99.90;;;;;;5133339;27;20432;-42
2023/07/16 07:39:18;;;;;;;7.95;1.48;;;22.20;99.90;;;;;;5117962;27;20024;-43
2023/07/16 07:41:44;;;;;;;11.73;1.20;;;22.70;99.90;;;;;;5133500;27;20033;-48
2023/07/16 07:44:10;;;;;;;10.10;2.05;;;23.00;99.90;;;;;;5133490;27;20019;-55
2023/07/16 07:46:36;;;;;;;6.00;0.95;;;23.00;99.90;;;;;;5132069;27;20409;-45
2023/07/16 07:49:02;;;;;;;6.97;1.45;;;22.30;99.90;;;;;;5131427;27;20023;-48
2023/07/16 07:51:28;;;;;;;7.65;1.00;;;21.80;99.90;;;;;;5132896;27;20110;-45
2023/07/16 07:53:55;;;;;;;6.20;1.17;;;21.40;99.90;;;;;;5133255;27;20033;-51
2023/07/16 07:56:22;;;;;;;8.18;1.63;;;21.00;99.90;;;;;;5132897;27;20118;-48
2023/07/16 07:58:47;;;;;;;7.80;1.15;;;20.50;99.90;;;;;;5133060;27;20023;-49
2023/07/16 08:01:16;;;;;;;3.88;1.00;;;20.20;99.90;;;;;;5132941;27;20072;-53
2023/07/16 08:03:42;;;;;;;12.13;1.67;;;20.10;99.90;;;;;;5140696;27;20137;-46
2023/07/16 08:06:08;;;;;;;8.85;1.38;;;20.30;99.90;;;;;;5131904;27;20019;-50
2023/07/16 08:08:34;;;;;;;4.35;1.10;;;20.30;99.90;;;;;;5132845;27;20387;-48
2023/07/16 08:11:06;;;;;;;5.70;0.95;;;20.50;99.90;;;;;;5132545;27;20023;-52
2023/07/16 08:13:33;;;;;;;5.35;0.90;;;20.40;99.90;;;;;;5132623;27;20016;-51
2023/07/16 08:15:59;;;;;;;2.95;0.95;;;20.30;99.90;;;;;;5131230;27;20047;-44
2023/07/16 08:18:26;;;;;;;7.55;1.00;;;20.20;99.90;;;;;;5142578;27;20077;-50
2023/07/16 08:20:54;;;;;;;5.80;1.25;;;20.00;99.90;;;;;;5134707;27;20023;-47
2023/07/16 08:23:20;;;;;;;8.95;2.58;;;19.90;99.90;;;;;;5134208;27;20184;-45
2023/07/16 08:25:46;;;;;;;6.50;1.30;;;19.70;99.90;;;;;;5131114;27;20458;-47
2023/07/16 08:28:12;;;;;;;4.63;1.30;;;19.40;99.90;;;;;;5130775;27;20035;-46
2023/07/16 08:30:41;;;;;;;6.55;1.38;;;19.80;99.90;;;;;;5134488;27;20374;-54
2023/07/16 08:33:07;;;;;;;4.07;0.90;;;20.30;99.90;;;;;;5147421;27;20023;-51
2023/07/16 08:35:34;;;;;;;6.72;1.10;;;20.20;99.90;;;;;;5146902;27;20034;-50
2023/07/16 08:38:00;;;;;;;4.28;1.27;;;20.00;99.90;;;;;;5131168;27;20042;-47
2023/07/16 08:40:27;;;;;;;6.07;1.20;;;19.70;99.90;;;;;;5131997;27;20499;-47
2023/07/16 08:42:57;;;;;;;5.88;1.30;;;19.80;99.90;;;;;;5131890;27;20468;-49
2023/07/16 08:45:28;;;;;;;8.95;1.20;;;19.70;99.90;;;;;;5137390;27;20026;-50
2023/07/16 08:47:57;;;;;;;5.38;0.95;;;19.70;99.90;;;;;;5133659;27;20019;-47
2023/07/16 08:50:25;;;;;;;11.45;1.50;;;20.00;99.90;;;;;;5139604;27;20037;-46
2023/07/16 08:52:51;;;;;;;3.50;0.80;;;20.60;99.90;;;;;;5131817;27;20027;-43
2023/07/16 08:55:18;;;;;;;8.93;1.00;;;21.20;99.90;;;;;;5131648;27;20422;-52
2023/07/16 08:57:45;;;;;;;3.15;1.00;;;21.30;99.90;;;;;;5131852;27;20043;-44
2023/07/16 09:00:13;;;;;;;4.32;0.98;;;21.30;99.90;;;;;;5130774;27;20113;-56
2023/07/16 09:02:42;;;;;;;3.83;0.80;;;21.70;99.90;;;;;;5132012;27;20030;-51
2023/07/16 09:05:16;;;;;;;3.88;1.17;;;21.70;99.90;;;;;;5134996;27;20019;-50
2023/07/16 09:07:42;;;;;;;4.47;0.80;;;21.40;99.90;;;;;;5131620;27;20479;-45
2023/07/16 09:10:08;;;;;;;6.60;1.30;;;21.30;99.90;;;;;;5129943;27;20181;-46
2023/07/16 09:12:34;;;;;;;11.20;1.27;;;21.50;99.90;;;;;;5138834;27;20057;-46
2023/07/16 09:15:03;;;;;;;5.63;0.80;;;22.20;99.90;;;;;;5152166;27;20023;-47
2023/07/16 09:17:34;;;;;;;9.35;1.25;;;22.30;99.90;;;;;;5129829;27;20039;-51
2023/07/16 09:20:06;;;;;;;4.30;1.35;;;22.60;99.90;;;;;;5128782;27;20696;-46
2023/07/16 09:22:38;;;;;;;5.80;1.10;;;22.80;99.90;;;;;;5129614;27;20027;-47
2023/07/16 09:25:04;;;;;;;3.83;1.00;;;23.00;99.90;;;;;;5131539;27;20027;-50
2023/07/16 09:27:31;;;;;;;4.72;0.95;;;23.00;99.90;;;;;;5112807;27;20157;-46
2023/07/16 09:30:02;;;;;;;11.38;1.40;;;23.10;99.90;;;;;;5136745;27;20026;-46
2023/07/16 09:32:35;;;;;;;9.77;0.95;;;23.50;99.90;;;;;;5138070;27;20023;-45
2023/07/16 09:35:06;;;;;;;3.30;0.77;;;23.50;99.90;;;;;;5134218;27;20106;-41
2023/07/16 09:37:32;;;;;;;3.95;0.93;;;23.60;99.90;;;;;;5143861;27;20027;-49
2023/07/16 09:39:59;;;;;;;3.50;1.02;;;24.00;99.90;;;;;;5135481;27;20027;-46
2023/07/16 09:42:25;;;;;;;14.15;1.75;;;23.90;99.90;;;;;;5139944;27;20521;-46
2023/07/16 09:44:54;;;;;;;3.67;1.05;;;24.10;99.90;;;;;;5118973;28;20035;-49
2023/07/16 09:47:19;;;;;;;3.50;1.17;;;24.20;99.90;;;;;;5142943;27;20525;-44
2023/07/16 09:49:45;;;;;;;5.82;1.30;;;24.10;99.90;;;;;;5130913;27;20111;-48
2023/07/16 09:52:14;;;;;;;2.78;0.80;;;23.90;99.90;;;;;;5130987;27;20598;-45
2023/07/16 09:54:41;;;;;;;6.63;1.08;;;23.10;99.90;;;;;;5140487;27;20075;-50
2023/07/16 09:57:11;;;;;;;6.15;0.88;;;22.80;99.90;;;;;;5129734;27;20487;-51
2023/07/16 09:59:38;;;;;;;3.42;0.85;;;22.70;99.90;;;;;;5131338;27;20030;-44
2023/07/16 10:02:09;;;;;;;3.03;1.10;;;22.30;99.90;;;;;;5131085;27;20023;-48
2023/07/16 10:04:41;;;;;;;3.38;1.05;;;22.40;99.90;;;;;;5131061;27;20376;-47
2023/07/16 10:07:22;;;;;;;3.55;1.08;;;22.60;99.90;;;;;;5139804;27;20075;-51
2023/07/16 10:09:56;;;;;;;3.13;0.80;;;23.00;99.90;;;;;;5131068;27;20030;-49
2023/07/16 10:12:28;;;;;;;3.03;0.80;;;23.60;99.90;;;;;;5130779;27;20035;-47
2023/07/16 10:15:02;;;;;;;2.95;0.60;;;24.10;99.90;;;;;;5130967;27;20456;-51
2023/07/16 10:17:37;;;;;;;4.85;0.88;;;24.50;99.90;;;;;;5130688;27;20037;-44
2023/07/16 10:20:08;;;;;;;3.40;1.10;;;24.90;99.90;;;;;;5131282;27;20024;-47
2023/07/16 10:22:46;;;;;;;1.88;0.60;;;25.10;98.80;;;;;;5131357;27;20023;-47
2023/07/16 10:25:18;;;;;;;4.47;0.63;;;25.00;98.40;;;;;;5133501;27;20039;-50
2023/07/16 10:27:45;;;;;;;3.75;0.70;;;24.70;98.90;;;;;;5131423;27;20076;-44
2023/07/16 10:30:15;;;;;;;4.85;0.93;;;24.10;98.30;;;;;;5137998;27;20023;-56
2023/07/16 10:32:53;;;;;;;3.13;0.80;;;23.60;98.30;;;;;;5134829;27;20080;-48
2023/07/16 10:35:23;;;;;;;2.45;0.88;;;23.70;99.90;;;;;;5133440;27;20043;-49
2023/07/16 10:37:55;;;;;;;5.15;0.90;;;23.90;98.80;;;;;;5134378;27;20044;-49
2023/07/16 10:40:21;;;;;;;3.40;0.88;;;24.10;99.10;;;;;;5134660;27;20076;-49
2023/07/16 10:42:47;;;;;;;4.72;0.80;;;24.40;99.90;;;;;;5134369;27;20020;-45
2023/07/16 10:45:13;;;;;;;3.42;1.10;;;24.50;99.60;;;;;;5133656;27;20107;-46
2023/07/16 10:47:51;;;;;;;2.53;0.80;;;24.60;99.00;;;;;;5133812;27;20019;-47
2023/07/16 10:50:21;;;;;;;2.95;0.88;;;24.90;99.90;;;;;;5132371;27;20031;-50
2023/07/16 10:52:54;;;;;;;2.67;0.60;;;24.80;96.10;;;;;;5132548;27;20558;-44
2023/07/16 10:55:21;;;;;;;2.40;0.77;;;25.10;98.40;;;;;;5132195;27;20488;-49
2023/07/16 10:57:51;;;;;;;2.85;0.77;;;25.30;97.40;;;;;;5130741;27;20069;-45
2023/07/16 11:00:18;;;;;;;3.60;0.73;;;25.70;98.60;;;;;;5132471;27;20035;-49
2023/07/16 11:02:49;;;;;;;3.58;0.80;;;25.80;97.50;;;;;;5132706;27;20023;-49
2023/07/16 11:05:16;;;;;;;2.80;0.98;;;25.50;95.00;;;;;;5134024;27;20030;-45
2023/07/16 11:07:46;;;;;;;2.67;0.70;;;25.20;95.50;;;;;;5132795;27;20023;-45
2023/07/16 11:10:15;;;;;;;2.78;0.80;;;24.80;94.70;;;;;;5132647;27;20160;-44
2023/07/16 11:12:42;;;;;;;3.90;1.03;;;24.50;96.20;;;;;;5112561;27;20028;-49
2023/07/16 11:15:10;;;;;;;2.80;1.00;;;24.50;95.90;;;;;;5128579;27;20026;-42
2023/07/16 11:17:49;;;;;;;4.85;0.68;;;24.20;95.60;;;;;;5134409;27;20118;-48
2023/07/16 11:20:15;;;;;;;2.85;0.70;;;24.20;97.00;;;;;;5139082;27;20046;-48
2023/07/16 11:22:41;;;;;;;3.25;0.82;;;24.30;94.80;;;;;;5134162;27;20055;-55
2023/07/16 11:25:13;;;;;;;2.85;1.00;;;24.40;98.10;;;;;;5132512;27;20026;-50
2023/07/16 11:27:42;;;;;;;6.50;1.30;;;24.50;95.20;;;;;;5131535;27;20033;-47
2023/07/16 11:30:12;;;;;;;5.43;1.13;;;24.40;96.80;;;;;;5133242;27;20415;-50
2023/07/16 11:32:44;;;;;;;4.57;1.00;;;24.50;97.20;;;;;;5147173;27;20027;-47
2023/07/16 11:35:17;;;;;;;1.10;0.55;;;24.30;96.60;;;;;;5141702;27;20050;-44
2023/07/16 11:37:46;;;;;;;4.22;1.13;;;24.10;96.30;;;;;;5132943;27;20039;-50
2023/07/16 11:40:22;;;;;;;4.60;1.05;;;24.00;96.90;;;;;;5131039;27;20030;-44
2023/07/16 11:42:48;;;;;;;5.75;1.70;;;24.00;99.50;;;;;;5130044;27;20086;-43
2023/07/16 11:45:26;;;;;;;5.18;1.58;;;24.50;99.30;;;;;;5133523;27;20075;-52
2023/07/16 11:47:52;;;;;;;3.03;1.20;;;24.00;96.70;;;;;;5133201;27;20023;-42
2023/07/16 11:50:19;;;;;;;6.70;1.13;;;23.60;97.10;;;;;;5133099;27;20066;-47
2023/07/16 11:52:53;;;;;;;3.97;1.00;;;23.40;98.80;;;;;;5133067;27;20055;-42
2023/07/16 11:55:22;;;;;;;7.47;1.35;;;23.70;99.60;;;;;;5132988;27;20092;-49
2023/07/16 11:57:48;;;;;;;3.85;0.95;;;24.00;99.70;;;;;;5132188;27;20522;-54
2023/07/16 12:00:14;;;;;;;6.75;1.13;;;24.40;98.90;;;;;;5132865;27;20508;-52
2023/07/16 12:02:43;;;;;;;5.68;0.93;;;24.30;99.00;;;;;;5133001;27;20030;-49
2023/07/16 12:05:12;;;;;;;;;;;23.90;98.40;;;;;;5133245;27;20038;-45
2023/07/16 12:07:38;;;;;;;4.50;1.00;;;23.40;97.30;;;;;;5136237;27;19914;-45
2023/07/16 12:10:06;;;;;;;4.53;1.15;;;23.10;98.90;;;;;;5137302;27;20042;-45
2023/07/16 12:12:33;;;;;;;4.03;1.00;;;22.70;99.30;;;;;;5132839;27;20034;-45
2023/07/16 12:15:02;;;;;;;6.13;0.88;;;22.60;99.90;;;;;;5132738;27;20060;-47
2023/07/16 12:17:27;;;;;;;4.43;1.35;;;22.60;99.90;;;;;;5132440;27;20035;-50
2023/07/16 12:19:53;;;;;;;11.02;2.03;;;22.80;99.90;;;;;;5131361;27;20024;-42
2023/07/16 12:22:20;;;;;;;3.70;1.25;;;22.80;99.60;;;;;;5132417;27;20102;-51
2023/07/16 12:24:56;;;;;;;6.85;1.52;;;22.80;99.90;;;;;;5132483;27;20570;-46
2023/07/16 12:27:22;;;;;;;6.15;1.60;;;22.80;99.60;;;;;;5131287;27;20050;-45
2023/07/16 12:29:48;;;;;;;3.30;1.08;;;22.60;99.10;;;;;;5132248;27;20201;-49
2023/07/16 12:32:17;;;;;;;3.58;1.38;;;22.70;99.90;;;;;;5131248;27;20038;-47
2023/07/16 12:34:49;;;;;;;5.05;1.40;;;22.80;99.90;;;;;;5132318;27;20478;-44
2023/07/16 12:37:16;;;;;;;4.40;1.30;;;23.00;99.90;;;;;;5144796;27;20042;-46
2023/07/16 12:39:43;;;;;;;4.13;0.90;;;22.90;99.90;;;;;;5117625;27;20026;-46
2023/07/16 12:42:11;;;;;;;5.57;1.35;;;22.80;99.70;;;;;;5140482;27;20031;-43
2023/07/16 12:44:37;;;;;;;5.15;1.65;;;22.70;99.90;;;;;;5131264;27;20092;-50